Terminal Aerodrome Forecast
Issued by NWS Blacksburg, VA

Home | Current Version | Previous Version | Text Only | Print | Product List | Glossary On
Versions: 1 2 3 4 5 6 7 8 9 10 11 12 13 14 15 16 17 18 19 20 21 22 23 24 25
792
FTUS41 KRNK 211126
TAFROA
TAF
KROA 211126Z 2112/2212 14007KT P6SM BKN250
      TEMPO 2113/2116 BKN040
     FM211700 15006KT P6SM BKN050
     FM220300 00000KT P6SM OVC120
     FM220800 VRB03KT P6SM -SHRA OVC040
     FM221100 00000KT 6SM -SHRA OVC025=

USA.gov is the U.S. government's official web portal to all federal, state and local government web resources and services.